Latest Coastal Weather Observations for Tewantin

IDQ60701

Issued at 10:35 pm EST Monday 24 November 2014 (issued every 10 minutes, with the page automatically refreshed every 10 minutes)

About coastal observations | Map of coastal stations | Coastal observations for QLD | Marine services | Other Formats
Station Details ID: 040908 Name: TEWANTIN RSL PARK Lat: -26.39 Lon: 153.04 Height: 6.4 m
Data from the previous 72 hours. | See also: Recent months at Tewantin
Date/Time
EST
Temp

°C
Wind Pressure Rain
since 9am
mm
Weather Cloud Vis
km
Sea
Height
m
Swell
Dir
 
Speed
knots
Gust
knots
hPa Trend Height
m
Period
s
Dir
24/10:30pm 23.2 N 7 9 1016.2 - 0.0 - - - - - - -
24/10:00pm 23.5 N 6 9 1016.3 - 0.0 - - - - - - -
24/09:30pm 23.7 N 7 11 1016.2 - 0.0 - - - - - - -
24/09:00pm 23.5 N 7 10 1015.8 - 0.0 - - - - - - -
24/08:30pm 23.7 N 8 13 1015.6 - 0.0 - - - - - - -
24/08:00pm 23.6 N 7 11 1015.1 - 0.0 - - - - - - -
24/07:30pm 23.7 N 8 13 1014.6 - 0.0 - - - - - - -
24/07:00pm 23.9 N 10 14 1014.4 - 0.0 - - - - - - -
24/06:30pm 24.1 N 11 17 1014.0 - 0.0 - - - - - - -
24/06:00pm 24.4 NNE 11 18 1013.7 - 0.0 - - - - - - -
24/05:30pm 24.9 NNE 12 18 1013.5 - 0.0 - - - - - - -
24/05:00pm 25.1 NNE 13 21 1013.1 - 0.0 - - - - - - -
24/04:30pm 25.5 NNE 14 21 1013.1 - 0.0 - - - - - - -
24/04:00pm 25.8 NNE 14 20 1013.3 - 0.0 - - - - - - -
24/03:30pm 25.9 NNE 15 24 1013.5 - 0.0 - - - - - - -
24/03:00pm 26.2 NNE 13 20 1013.6 - 0.0 - - - - - - -
24/02:30pm 26.8 NNE 13 21 1014.1 - 0.0 - - - - - - -
24/02:00pm 26.6 NE 15 21 1014.3 - 0.0 - - - - - - -
24/01:30pm 26.8 NNE 14 20 1014.9 - 0.0 - - - - - - -
24/01:00pm 26.6 NNE 14 20 1015.3 - 0.0 - - - - - - -
24/12:30pm 26.5 NNE 13 19 1015.7 - 0.0 - - - - - - -
24/12:00pm 27.0 NE 10 16 1016.0 - 0.0 - - - - - - -
24/11:30am 27.1 NE 10 14 1016.5 - 0.0 - - - - - - -
24/11:00am 26.8 NNE 11 16 1017.0 - 0.0 - - - - - - -
24/10:30am 26.5 NNE 11 15 1017.4 - 0.0 - - - - - - -
24/10:00am 26.3 NNE 11 16 1017.7 - 0.0 - - - - - - -
24/09:30am 26.8 NNE 9 14 1018.1 - 0.0 - - - - - - -
24/09:00am 26.2 NE 9 13 1018.3 - 0.0 - - - - - - -
24/08:30am 26.1 NE 8 12 1018.2 - 0.0 - - - - - - -
24/08:00am 25.9 NNE 8 11 1018.3 - 0.0 - - - - - - -
24/07:30am 25.3 N 6 9 1018.3 - 0.0 - - - - - - -
24/07:00am 24.3 N 4 7 1018.0 - 0.0 - - - - - - -
24/06:30am 23.9 NW 3 6 1018.0 - 0.0 - - - - - - -
24/06:00am 22.9 NW 1 4 1017.8 - 0.0 - - - - - - -
24/05:30am 21.4 CALM 0 3 1017.5 - 0.0 - - - - - - -
24/05:00am 20.7 CALM 0 3 1017.6 - 0.0 - - - - - - -
24/04:30am 21.1 NW 3 4 1017.3 - 0.0 - - - - - - -
24/04:00am 21.1 WNW 2 5 1017.1 - 0.0 - - - - - - -
24/03:30am 21.3 WNW 3 5 1016.9 - 0.0 - - - - - - -
24/03:00am 21.4 NW 4 5 1016.6 - 0.0 - - - - - - -
24/02:30am 21.4 WNW 3 4 1016.7 - 0.0 - - - - - - -
24/02:00am 21.6 WNW 3 4 1016.8 - 0.0 - - - - - - -
24/01:30am 21.6 NW 2 4 1016.8 - 0.0 - - - - - - -
24/01:00am 21.8 NW 3 4 1017.0 - 0.0 - - - - - - -
24/12:30am 21.9 CALM 0 0 1017.3 - 0.0 - - - - - - -
24/12:00am 22.0 WNW 2 4 1017.3 - 0.0 - - - - - - -
 
Date/Time
EST
Temp

°C
Wind Pressure Rain
since 9am
mm
Weather Cloud Vis
km
Sea
Height
m
Swell
Dir
 
Speed
knots
Gust
knots
hPa Trend Height
m
Period
s
Dir
23/11:30pm 22.3 NW 3 4 1017.2 - 0.0 - - - - - - -
23/11:00pm 23.0 NW 3 5 1017.3 - 0.0 - - - - - - -
23/10:30pm 23.7 N 5 7 1017.4 - 0.0 - - - - - - -
23/10:00pm 23.7 N 7 9 1017.3 - 0.0 - - - - - - -
23/09:30pm 23.9 N 5 8 1017.2 - 0.0 - - - - - - -
23/09:00pm 23.7 N 6 9 1017.1 - 0.0 - - - - - - -
23/08:30pm 23.9 N 6 8 1016.9 - 0.0 - - - - - - -
23/08:00pm 24.1 N 8 11 1016.3 - 0.0 - - - - - - -
23/07:30pm 24.2 N 7 11 1015.8 - 0.0 - - - - - - -
23/07:00pm 24.4 N 9 12 1015.6 - 0.0 - - - - - - -
23/06:30pm 24.5 N 9 14 1015.3 - 0.0 - - - - - - -
23/06:00pm 24.8 NNE 10 16 1014.9 - 0.0 - - - - - - -
23/05:30pm 25.1 NNE 12 17 1014.6 - 0.0 - - - - - - -
23/05:00pm 25.5 NNE 14 19 1014.2 - 0.0 - - - - - - -
23/04:30pm 25.7 NNE 13 19 1014.3 - 0.0 - - - - - - -
23/04:00pm 26.1 NNE 15 20 1014.5 - 0.0 - - - - - - -
23/03:30pm 26.6 NNE 13 19 1014.8 - 0.0 - - - - - - -
23/03:00pm 26.9 NNE 15 22 1015.1 - 0.0 - - - - - - -
23/02:30pm 26.5 NNE 14 21 1015.2 - 0.0 - - - - - - -
23/02:00pm 26.9 NNE 13 19 1015.5 - 0.0 - - - - - - -
23/01:30pm 26.6 NNE 14 18 1016.0 - 0.0 - - - - - - -
23/01:00pm 26.7 NNE 14 18 1016.4 - 0.0 - - - - - - -
23/12:30pm 26.7 NNE 14 20 1016.9 - 0.0 - - - - - - -
23/12:00pm 26.9 NNE 11 17 1017.1 - 0.0 - - - - - - -
23/11:30am 26.9 NNE 11 17 1017.4 - 0.0 - - - - - - -
23/11:00am 26.5 NNE 13 16 1017.8 - 0.0 - - - - - - -
23/10:30am 26.5 NNE 12 15 1017.9 - 0.0 - - - - - - -
23/10:00am 27.1 NNE 9 13 1018.1 - 0.0 - - - - - - -
23/09:30am 27.2 NNE 8 11 1018.3 - 0.0 - - - - - - -
23/09:00am 26.3 NNE 7 10 1018.3 - 0.0 - - - - - - -
23/08:30am 26.0 N 8 13 1018.2 - 0.0 - - - - - - -
23/08:00am 25.7 N 7 12 1018.2 - 0.0 - - - - - - -
23/07:30am 25.2 NNW 6 10 1018.2 - 0.0 - - - - - - -
23/07:00am 24.5 NNW 5 7 1018.1 - 0.0 - - - - - - -
23/06:30am 24.5 NNW 3 6 1017.8 - 0.0 - - - - - - -
23/06:00am 23.7 NNW 3 5 1017.5 - 0.0 - - - - - - -
23/05:30am 23.3 N 5 7 1016.9 - 0.0 - - - - - - -
23/05:00am 23.1 N 6 9 1016.4 - 0.0 - - - - - - -
23/04:30am 23.0 N 5 7 1016.0 - 0.0 - - - - - - -
23/04:00am 22.7 NNW 4 5 1015.7 - 0.0 - - - - - - -
23/03:30am 22.9 N 5 7 1015.3 - 0.0 - - - - - - -
23/03:00am 23.1 N 6 8 1015.3 - 0.0 - - - - - - -
23/02:30am 23.4 N 7 9 1015.2 - 0.0 - - - - - - -
23/02:00am 23.5 N 7 9 1015.2 - 0.0 - - - - - - -
23/01:30am 23.6 N 5 8 1015.4 - 0.0 - - - - - - -
23/01:00am 23.9 N 7 11 1015.5 - 0.0 - - - - - - -
23/12:30am 24.1 N 8 11 1015.8 - 0.0 - - - - - - -
23/12:00am 24.2 N 5 10 1016.0 - 0.0 - - - - - - -
 
Date/Time
EST
Temp

°C
Wind Pressure Rain
since 9am
mm
Weather Cloud Vis
km
Sea
Height
m
Swell
Dir
 
Speed
knots
Gust
knots
hPa Trend Height
m
Period
s
Dir
22/11:30pm 24.4 N 6 8 1016.2 - 0.0 - - - - - - -
22/11:00pm 24.3 N 7 9 1016.0 - 0.0 - - - - - - -
22/10:30pm 24.1 N 6 9 1016.1 - 0.0 - - - - - - -
22/10:00pm 24.3 N 6 9 1015.9 - 0.0 - - - - - - -
22/09:30pm 24.4 N 6 8 1015.8 - 0.0 - - - - - - -
22/09:00pm 24.6 N 5 7 1015.7 - 0.0 - - - - - - -
22/08:30pm 24.9 N 6 9 1015.3 - 0.0 - - - - - - -
22/08:00pm 24.7 N 6 8 1014.8 - 0.0 - - - - - - -
22/07:30pm 24.9 NNE 8 13 1014.4 - 0.0 - - - - - - -
22/07:00pm 25.0 N 9 14 1013.8 - 0.0 - - - - - - -
22/06:30pm 25.1 NNE 10 14 1013.4 - 0.0 - - - - - - -
22/06:00pm 25.3 NNE 11 15 1013.0 - 0.0 - - - - - - -
22/05:30pm 25.6 NNE 13 19 1012.7 - 0.0 - - - - - - -
22/05:00pm 26.0 NNE 13 19 1012.2 - 0.0 - - - - - - -
22/04:30pm 26.5 NNE 14 19 1012.0 - 0.0 - - - - - - -
22/04:00pm 26.7 NNE 16 20 1011.9 - 0.0 - - - - - - -
22/03:30pm 26.9 NNE 17 24 1012.0 - 0.0 - - - - - - -
22/03:00pm 26.9 NNE 17 25 1012.3 - 0.0 - - - - - - -
22/02:30pm 27.2 NNE 16 22 1012.5 - 0.0 - - - - - - -
22/02:00pm 27.2 NNE 17 27 1012.8 - 0.0 - - - - - - -
22/01:52pm 27.0 NNE 16 27 1012.9 - 0.0 - - - - - - -
22/01:30pm 27.4 NE 17 24 1013.1 - 0.0 - - - - - - -
22/01:00pm 27.3 NNE 16 24 1013.3 - 0.0 - - - - - - -
22/12:30pm 27.4 NNE 15 21 1013.7 - 0.0 - - - - - - -
22/12:00pm 27.7 NNE 13 20 1014.1 - 0.0 - - - - - - -
22/11:30am 27.7 NNE 13 19 1014.6 - 0.0 - - - - - - -
22/11:00am 27.2 NNE 12 19 1015.0 - 0.0 - - - - - - -
22/10:30am 27.3 NNE 10 15 1015.5 - 0.0 - - - - - - -
22/10:00am 27.8 N 7 12 1015.6 - 0.0 - - - - - - -
22/09:30am 28.2 N 9 11 1015.7 - 0.0 - - - - - - -
22/09:00am 28.2 NNW 7 17 1015.6 - 0.0 - - - - - - -
22/08:30am 27.6 N 7 11 1015.7 - 0.0 - - - - - - -
22/08:00am 25.5 N 6 8 1015.9 - 0.0 - - - - - - -
22/07:30am 24.8 N 7 9 1015.7 - 0.0 - - - - - - -
22/07:00am 24.6 N 6 9 1015.8 - 0.0 - - - - - - -
22/06:30am 24.5 N 6 7 1015.5 - 0.0 - - - - - - -
22/06:00am 24.5 NNW 3 5 1015.2 - 0.0 - - - - - - -
22/05:30am 24.4 N 5 9 1014.6 - 0.0 - - - - - - -
22/05:00am 24.1 N 8 12 1014.1 - 0.0 - - - - - - -
22/04:30am 23.9 N 5 8 1014.3 - 0.0 - - - - - - -
22/04:00am 23.9 NNW 5 7 1014.0 - 0.0 - - - - - - -
22/03:30am 23.9 NNW 6 11 1013.5 - 0.0 - - - - - - -
22/03:00am 23.8 N 6 8 1013.3 - 0.0 - - - - - - -
22/02:30am 23.7 N 5 8 1013.1 - 0.0 - - - - - - -
22/02:00am 23.9 N 4 7 1013.1 - 0.0 - - - - - - -
22/01:30am 23.9 N 5 9 1013.0 - 0.0 - - - - - - -
22/01:00am 23.7 N 4 6 1013.3 - 0.0 - - - - - - -
22/12:30am 23.9 N 5 9 1013.5 - 0.0 - - - - - - -
22/12:00am 23.9 N 4 7 1013.8 - 0.0 - - - - - - -
 
Date/Time
EST
Temp

°C
Wind Pressure Rain
since 9am
mm
Weather Cloud Vis
km
Sea
Height
m
Swell
Dir
 
Speed
knots
Gust
knots
hPa Trend Height
m
Period
s
Dir
21/11:30pm 24.0 NNW 5 7 1014.3 - 0.0 - - - - - - -
21/11:00pm 24.1 N 4 5 1014.7 - 0.0 - - - - - - -

Other Formats:

Comma delimited format used in spreadsheet applications
http://www.bom.gov.au/fwo/IDQ60701/IDQ60701.94570.axf

JavaScript Object Notation format (JSON) in row-major order
http://www.bom.gov.au/fwo/IDQ60701/IDQ60701.94570.json